Terminal Aerodrome Forecast
Issued by NWS

Home | Current Version | Previous Version | Text Only | Print | Product List | Glossary On
Versions: 1 2 3 4 5 6 7 8 9 10 11 12 13
000
FTUS45 KPIH 270520
TAFSUN
TAF
KSUN 270520Z 2706/2812 31009KT P6SM VCSH BKN090 OVC120
     FM271800 20015KT P6SM SCT080
     FM280300 30009KT P6SM FEW090 FEW200
      AMD LTD TO CLD VIS AND WIND TIL 271300=

USA.gov is the U.S. government's official web portal to all federal, state and local government web resources and services.